Tampa, Florida
Current Conditions -  °F | °C
As of 8:53 PM on Friday 24 Oct 2014 (Local Time) from KTPA Reporting Station
Few Clouds Few Clouds  
Wind Chill: 69°   Ceiling: Unl
Heat Index: 69°   Visibility: 10mi
Dew Point: 59°   Wind: 8mph
Humidity: 70%   Direction: 360°N
Pressure: 29.95"   Gusts: NA
Location:  27.95°N, 82.46°W
Report Text: KTPA 250053Z 36007KT 10SM FEW050 21/15 A2995 RMK AO2 SLP141 T02060150
Loading
Personal Weather Stations






























Interactive Weather Map
Tropical Storm Tracking
New forecast layout! Learn more

10-Day Weather Forecast

Advertisements
Track Severe Weather on mobile